Labuan Airport Labuan MY
ICAO: WBKL
IATA:
Category: Medium
Scheduled Services:

Elevation: 101 ft
TransAlt. 11000 ft.

Airport Communications:
APP:119.7
ATIS:126.85
GND:118.35
TWR:118.1

WBKL Zoom In..

Runways:

(A) RW 14 length 9006 ft width 148 ft
ILS 111.10 / hdg 145

(B) RW 32 length 9006 ft width 148 ft
---- / hdg 325

Location; WBKL
Day. 05 / Time. 17.00 Zulu
* QNH: 1009
* Temperature: 25° c. 77°f.
* Wind from: 000° Speed 00 kn.
Dewpoint: 25° c.
Visibility: 10 km or more.
Clouds: Few 1600 ft.
Clouds: Scattered 14000 ft.
Clouds: Broken 29000 ft.

WBKL 051700Z 00000KT 9999 FEW016 SCT140 BKN290 25/25 Q1009

Going to: --> -->


Wind - Calm.

 
 
jpsmedia worldairports.se 2020   terms of use